Terminal Aerodrome Forecast
Issued by NWS

Current Version | Previous Version | Text Only | Print | Product List | Glossary Off
Versions: 1 2 3 4 5 6 7 8 9 10 11 12 13 14 15 16 17 18

000
FTUS41 KILN 261736
TAFLUK
TAF
KLUK 261736Z 2618/2718 20007KT P6SM SCT040 BKN250
     FM270300 18007KT P6SM -SHRA VCTS SCT025 BKN035CB
     FM270900 24008KT P6SM OVC015
     FM271600 28008KT P6SM BKN035=

USA.gov is the U.S. government's official web portal to all federal, state and local government web resources and services.